Columbus, Georgia
Current Conditions -  °F | °C
As of 5:51 AM on Thursday 27 Nov 2014 (Local Time) from KCSG Reporting Station
Clear Clear  
Wind Chill:   Ceiling: Unl
Heat Index:   Visibility: 10mi
Dew Point: -3°   Wind: 10mph
Humidity: 51%   Direction: 340°NNW
Pressure: 30.21"   Gusts: NA
Location:  32.51°N, 84.93°W
Report Text: KCSG 271051Z AUTO 34009KT 10SM CLR 07/M03 A3021 RMK AO2 SLP230 T00671028
Loading
Personal Weather Stations






























Interactive Weather Map New forecast layout! Learn more

10-Day Weather Forecast

Advertisements
Track Severe Weather on mobile